sensor_id;sensor_type;location;lat;lon;timestamp;temperature;humidity
72936;DHT22;61085;48.804;9.228;2022-07-23T00:01:22;26.80;43.50
72936;DHT22;61085;48.804;9.228;2022-07-23T00:03:48;26.70;43.30
72936;DHT22;61085;48.804;9.228;2022-07-23T00:06:15;26.70;43.40
72936;DHT22;61085;48.804;9.228;2022-07-23T00:08:41;26.60;43.60
72936;DHT22;61085;48.804;9.228;2022-07-23T00:11:07;26.50;44.40
72936;DHT22;61085;48.804;9.228;2022-07-23T00:13:32;26.50;44.10
72936;DHT22;61085;48.804;9.228;2022-07-23T00:15:58;26.60;44.20
72936;DHT22;61085;48.804;9.228;2022-07-23T00:18:24;26.40;44.60
72936;DHT22;61085;48.804;9.228;2022-07-23T00:20:49;26.40;44.40
72936;DHT22;61085;48.804;9.228;2022-07-23T00:23:16;26.30;44.30
72936;DHT22;61085;48.804;9.228;2022-07-23T00:25:42;26.30;44.50
72936;DHT22;61085;48.804;9.228;2022-07-23T00:28:07;26.20;44.40
72936;DHT22;61085;48.804;9.228;2022-07-23T00:30:33;26.20;44.50
72936;DHT22;61085;48.804;9.228;2022-07-23T00:33:02;26.30;44.60
72936;DHT22;61085;48.804;9.228;2022-07-23T00:35:36;26.10;44.60
72936;DHT22;61085;48.804;9.228;2022-07-23T00:38:03;26.10;44.80
72936;DHT22;61085;48.804;9.228;2022-07-23T00:40:30;26.00;44.90
72936;DHT22;61085;48.804;9.228;2022-07-23T00:42:56;26.00;45.10
72936;DHT22;61085;48.804;9.228;2022-07-23T00:45:22;25.60;44.70
72936;DHT22;61085;48.804;9.228;2022-07-23T00:47:47;25.90;46.10
72936;DHT22;61085;48.804;9.228;2022-07-23T00:50:13;25.80;47.10
72936;DHT22;61085;48.804;9.228;2022-07-23T00:52:40;25.50;47.90
72936;DHT22;61085;48.804;9.228;2022-07-23T00:55:07;25.70;48.40
72936;DHT22;61085;48.804;9.228;2022-07-23T00:57:33;25.50;48.90
72936;DHT22;61085;48.804;9.228;2022-07-23T00:59:59;25.40;49.50
72936;DHT22;61085;48.804;9.228;2022-07-23T01:02:26;25.30;50.00
72936;DHT22;61085;48.804;9.228;2022-07-23T01:04:52;25.30;50.40
72936;DHT22;61085;48.804;9.228;2022-07-23T01:07:18;25.20;50.80
72936;DHT22;61085;48.804;9.228;2022-07-23T01:09:45;25.10;50.70
72936;DHT22;61085;48.804;9.228;2022-07-23T01:12:11;25.20;50.60
72936;DHT22;61085;48.804;9.228;2022-07-23T01:14:37;25.10;50.70
72936;DHT22;61085;48.804;9.228;2022-07-23T01:17:02;25.00;50.30
72936;DHT22;61085;48.804;9.228;2022-07-23T01:19:28;25.00;50.60
72936;DHT22;61085;48.804;9.228;2022-07-23T01:21:55;25.00;50.70
72936;DHT22;61085;48.804;9.228;2022-07-23T01:24:22;25.00;50.50
72936;DHT22;61085;48.804;9.228;2022-07-23T01:26:48;24.90;50.10
72936;DHT22;61085;48.804;9.228;2022-07-23T01:29:14;24.80;50.20
72936;DHT22;61085;48.804;9.228;2022-07-23T01:31:41;24.80;50.40
72936;DHT22;61085;48.804;9.228;2022-07-23T01:34:07;25.00;50.40
72936;DHT22;61085;48.804;9.228;2022-07-23T01:36:36;24.90;50.10
72936;DHT22;61085;48.804;9.228;2022-07-23T01:39:03;25.00;49.40
72936;DHT22;61085;48.804;9.228;2022-07-23T01:41:29;25.00;49.10
72936;DHT22;61085;48.804;9.228;2022-07-23T01:43:55;25.00;48.90
72936;DHT22;61085;48.804;9.228;2022-07-23T01:46:21;25.00;49.00
72936;DHT22;61085;48.804;9.228;2022-07-23T01:48:46;25.00;49.20
72936;DHT22;61085;48.804;9.228;2022-07-23T01:51:12;24.90;49.10
72936;DHT22;61085;48.804;9.228;2022-07-23T01:53:38;25.00;49.20
72936;DHT22;61085;48.804;9.228;2022-07-23T01:56:04;25.00;49.80
72936;DHT22;61085;48.804;9.228;2022-07-23T01:58:30;24.90;49.40
72936;DHT22;61085;48.804;9.228;2022-07-23T02:00:56;24.90;49.50
72936;DHT22;61085;48.804;9.228;2022-07-23T02:03:22;24.90;49.30
72936;DHT22;61085;48.804;9.228;2022-07-23T02:05:48;24.80;49.40
72936;DHT22;61085;48.804;9.228;2022-07-23T02:08:14;24.80;49.80
72936;DHT22;61085;48.804;9.228;2022-07-23T02:10:40;25.00;49.80
72936;DHT22;61085;48.804;9.228;2022-07-23T02:13:06;24.70;49.80
72936;DHT22;61085;48.804;9.228;2022-07-23T02:15:32;24.70;49.40
72936;DHT22;61085;48.804;9.228;2022-07-23T02:17:58;24.80;49.70
72936;DHT22;61085;48.804;9.228;2022-07-23T02:20:24;24.80;49.60
72936;DHT22;61085;48.804;9.228;2022-07-23T02:22:50;24.70;49.80
72936;DHT22;61085;48.804;9.228;2022-07-23T02:25:15;24.60;50.20
72936;DHT22;61085;48.804;9.228;2022-07-23T02:27:41;24.70;50.30
72936;DHT22;61085;48.804;9.228;2022-07-23T02:30:07;24.70;50.30
72936;DHT22;61085;48.804;9.228;2022-07-23T02:32:34;24.70;50.20
72936;DHT22;61085;48.804;9.228;2022-07-23T02:35:00;24.70;50.40
72936;DHT22;61085;48.804;9.228;2022-07-23T02:37:26;24.80;50.30
72936;DHT22;61085;48.804;9.228;2022-07-23T02:39:52;24.70;50.40
72936;DHT22;61085;48.804;9.228;2022-07-23T02:42:18;24.70;50.90
72936;DHT22;61085;48.804;9.228;2022-07-23T02:44:44;24.70;50.60
72936;DHT22;61085;48.804;9.228;2022-07-23T02:47:09;25.10;50.70
72936;DHT22;61085;48.804;9.228;2022-07-23T02:49:35;24.60;50.70
72936;DHT22;61085;48.804;9.228;2022-07-23T02:52:01;24.70;50.60
72936;DHT22;61085;48.804;9.228;2022-07-23T02:54:27;24.60;50.70
72936;DHT22;61085;48.804;9.228;2022-07-23T02:56:53;24.60;50.80
72936;DHT22;61085;48.804;9.228;2022-07-23T02:59:19;24.60;50.50
72936;DHT22;61085;48.804;9.228;2022-07-23T03:01:45;24.60;50.60
72936;DHT22;61085;48.804;9.228;2022-07-23T03:04:11;24.50;50.60
72936;DHT22;61085;48.804;9.228;2022-07-23T03:06:37;24.60;50.40
72936;DHT22;61085;48.804;9.228;2022-07-23T03:09:03;24.50;50.70
72936;DHT22;61085;48.804;9.228;2022-07-23T03:11:29;24.40;51.00
72936;DHT22;61085;48.804;9.228;2022-07-23T03:13:55;24.50;51.00
72936;DHT22;61085;48.804;9.228;2022-07-23T03:16:21;24.30;51.30
72936;DHT22;61085;48.804;9.228;2022-07-23T03:18:46;24.40;51.50
72936;DHT22;61085;48.804;9.228;2022-07-23T03:21:12;24.40;51.60
72936;DHT22;61085;48.804;9.228;2022-07-23T03:23:38;24.40;51.70
72936;DHT22;61085;48.804;9.228;2022-07-23T03:26:04;24.40;51.90
72936;DHT22;61085;48.804;9.228;2022-07-23T03:28:30;24.50;51.60
72936;DHT22;61085;48.804;9.228;2022-07-23T03:30:56;24.30;51.90
72936;DHT22;61085;48.804;9.228;2022-07-23T03:33:22;24.30;52.00
72936;DHT22;61085;48.804;9.228;2022-07-23T03:35:48;24.20;52.20
72936;DHT22;61085;48.804;9.228;2022-07-23T03:38:14;24.10;52.40
72936;DHT22;61085;48.804;9.228;2022-07-23T03:40:40;24.10;52.20
72936;DHT22;61085;48.804;9.228;2022-07-23T03:43:06;24.10;52.60
72936;DHT22;61085;48.804;9.228;2022-07-23T03:45:32;24.10;52.80
72936;DHT22;61085;48.804;9.228;2022-07-23T03:47:57;23.90;52.70
72936;DHT22;61085;48.804;9.228;2022-07-23T03:50:23;23.90;52.70
72936;DHT22;61085;48.804;9.228;2022-07-23T03:52:49;24.00;52.80
72936;DHT22;61085;48.804;9.228;2022-07-23T03:55:15;24.10;52.60
72936;DHT22;61085;48.804;9.228;2022-07-23T03:57:41;24.10;52.70
72936;DHT22;61085;48.804;9.228;2022-07-23T04:00:07;24.00;52.90
72936;DHT22;61085;48.804;9.228;2022-07-23T04:02:35;24.00;53.10
72936;DHT22;61085;48.804;9.228;2022-07-23T04:05:01;24.00;53.20
72936;DHT22;61085;48.804;9.228;2022-07-23T04:07:26;23.90;53.40
72936;DHT22;61085;48.804;9.228;2022-07-23T04:09:52;24.10;53.40
72936;DHT22;61085;48.804;9.228;2022-07-23T04:12:18;24.00;53.50
72936;DHT22;61085;48.804;9.228;2022-07-23T04:14:44;24.10;53.10
72936;DHT22;61085;48.804;9.228;2022-07-23T04:17:10;24.20;52.80
72936;DHT22;61085;48.804;9.228;2022-07-23T04:19:36;24.30;52.50
72936;DHT22;61085;48.804;9.228;2022-07-23T04:22:06;24.30;52.10
72936;DHT22;61085;48.804;9.228;2022-07-23T04:24:32;24.30;51.90
72936;DHT22;61085;48.804;9.228;2022-07-23T04:26:58;24.40;51.70
72936;DHT22;61085;48.804;9.228;2022-07-23T04:29:24;24.70;51.60
72936;DHT22;61085;48.804;9.228;2022-07-23T04:31:49;24.80;50.70
72936;DHT22;61085;48.804;9.228;2022-07-23T04:34:15;24.80;50.70
72936;DHT22;61085;48.804;9.228;2022-07-23T04:36:41;24.70;50.90
72936;DHT22;61085;48.804;9.228;2022-07-23T04:39:06;24.60;51.40
72936;DHT22;61085;48.804;9.228;2022-07-23T04:41:32;24.60;52.00
72936;DHT22;61085;48.804;9.228;2022-07-23T04:44:00;24.60;51.60
72936;DHT22;61085;48.804;9.228;2022-07-23T04:46:25;24.50;51.60
72936;DHT22;61085;48.804;9.228;2022-07-23T04:48:51;24.50;51.60
72936;DHT22;61085;48.804;9.228;2022-07-23T04:51:17;24.50;51.40
72936;DHT22;61085;48.804;9.228;2022-07-23T04:53:42;24.60;51.60
72936;DHT22;61085;48.804;9.228;2022-07-23T04:56:08;24.50;51.40
72936;DHT22;61085;48.804;9.228;2022-07-23T04:58:34;24.70;51.20
72936;DHT22;61085;48.804;9.228;2022-07-23T05:00:59;24.90;50.60
72936;DHT22;61085;48.804;9.228;2022-07-23T05:03:25;24.90;50.30
72936;DHT22;61085;48.804;9.228;2022-07-23T05:05:50;25.10;50.50
72936;DHT22;61085;48.804;9.228;2022-07-23T05:08:16;25.40;49.60
72936;DHT22;61085;48.804;9.228;2022-07-23T05:10:42;25.80;48.80
72936;DHT22;61085;48.804;9.228;2022-07-23T05:13:07;26.30;47.50
72936;DHT22;61085;48.804;9.228;2022-07-23T05:15:33;26.90;46.60
72936;DHT22;61085;48.804;9.228;2022-07-23T05:17:58;27.20;45.80
72936;DHT22;61085;48.804;9.228;2022-07-23T05:20:24;27.60;44.30
72936;DHT22;61085;48.804;9.228;2022-07-23T05:22:50;27.70;44.20
72936;DHT22;61085;48.804;9.228;2022-07-23T05:25:16;28.00;43.50
72936;DHT22;61085;48.804;9.228;2022-07-23T05:27:42;28.20;42.90
72936;DHT22;61085;48.804;9.228;2022-07-23T05:30:08;28.60;42.80
72936;DHT22;61085;48.804;9.228;2022-07-23T05:32:33;28.80;42.00
72936;DHT22;61085;48.804;9.228;2022-07-23T05:34:59;29.10;41.50
72936;DHT22;61085;48.804;9.228;2022-07-23T05:37:25;29.80;40.70
72936;DHT22;61085;48.804;9.228;2022-07-23T05:39:50;30.80;38.90
72936;DHT22;61085;48.804;9.228;2022-07-23T05:42:16;31.00;38.10
72936;DHT22;61085;48.804;9.228;2022-07-23T05:44:42;30.30;38.80
72936;DHT22;61085;48.804;9.228;2022-07-23T05:47:08;29.20;40.40
72936;DHT22;61085;48.804;9.228;2022-07-23T05:49:34;28.70;42.00
72936;DHT22;61085;48.804;9.228;2022-07-23T05:52:04;27.90;43.50
72936;DHT22;61085;48.804;9.228;2022-07-23T05:54:30;27.50;45.70
72936;DHT22;61085;48.804;9.228;2022-07-23T05:56:55;27.30;45.80
72936;DHT22;61085;48.804;9.228;2022-07-23T05:59:21;27.00;45.80
72936;DHT22;61085;48.804;9.228;2022-07-23T06:01:47;26.80;46.70
72936;DHT22;61085;48.804;9.228;2022-07-23T06:04:12;26.90;46.70
72936;DHT22;61085;48.804;9.228;2022-07-23T06:06:38;26.90;46.80
72936;DHT22;61085;48.804;9.228;2022-07-23T06:09:03;26.70;47.40
72936;DHT22;61085;48.804;9.228;2022-07-23T06:11:29;26.70;47.70
72936;DHT22;61085;48.804;9.228;2022-07-23T06:13:55;26.70;47.10
72936;DHT22;61085;48.804;9.228;2022-07-23T06:16:20;26.30;47.30
72936;DHT22;61085;48.804;9.228;2022-07-23T06:18:46;26.30;47.50
72936;DHT22;61085;48.804;9.228;2022-07-23T06:21:12;26.30;47.40
72936;DHT22;61085;48.804;9.228;2022-07-23T06:23:37;26.10;46.70
72936;DHT22;61085;48.804;9.228;2022-07-23T06:26:03;26.00;47.30
72936;DHT22;61085;48.804;9.228;2022-07-23T06:28:28;26.00;47.60
72936;DHT22;61085;48.804;9.228;2022-07-23T06:30:54;26.10;47.10
72936;DHT22;61085;48.804;9.228;2022-07-23T06:33:20;26.10;47.10
72936;DHT22;61085;48.804;9.228;2022-07-23T06:35:45;26.40;47.50
72936;DHT22;61085;48.804;9.228;2022-07-23T06:38:11;26.10;46.80
72936;DHT22;61085;48.804;9.228;2022-07-23T06:40:38;26.10;47.30
72936;DHT22;61085;48.804;9.228;2022-07-23T06:43:03;26.30;46.90
72936;DHT22;61085;48.804;9.228;2022-07-23T06:45:29;26.50;46.70
72936;DHT22;61085;48.804;9.228;2022-07-23T06:47:55;26.50;46.20
72936;DHT22;61085;48.804;9.228;2022-07-23T06:50:20;26.40;46.60
72936;DHT22;61085;48.804;9.228;2022-07-23T06:52:46;26.50;46.60
72936;DHT22;61085;48.804;9.228;2022-07-23T06:55:12;26.50;46.10
72936;DHT22;61085;48.804;9.228;2022-07-23T06:57:38;26.50;46.50
72936;DHT22;61085;48.804;9.228;2022-07-23T07:00:04;26.60;46.00
72936;DHT22;61085;48.804;9.228;2022-07-23T07:02:30;26.70;46.10
72936;DHT22;61085;48.804;9.228;2022-07-23T07:04:56;26.50;46.60
72936;DHT22;61085;48.804;9.228;2022-07-23T07:07:21;26.20;46.70
72936;DHT22;61085;48.804;9.228;2022-07-23T07:09:47;25.90;47.00
72936;DHT22;61085;48.804;9.228;2022-07-23T07:12:12;25.60;47.80
72936;DHT22;61085;48.804;9.228;2022-07-23T07:14:38;25.50;48.60
72936;DHT22;61085;48.804;9.228;2022-07-23T07:17:04;25.40;48.60
72936;DHT22;61085;48.804;9.228;2022-07-23T07:19:30;25.30;48.90
72936;DHT22;61085;48.804;9.228;2022-07-23T07:21:55;25.10;49.70
72936;DHT22;61085;48.804;9.228;2022-07-23T07:24:21;24.90;50.00
72936;DHT22;61085;48.804;9.228;2022-07-23T07:26:47;25.00;50.40
72936;DHT22;61085;48.804;9.228;2022-07-23T07:29:12;24.60;51.00
72936;DHT22;61085;48.804;9.228;2022-07-23T07:31:38;24.40;51.70
72936;DHT22;61085;48.804;9.228;2022-07-23T07:34:04;24.10;52.70
72936;DHT22;61085;48.804;9.228;2022-07-23T07:36:29;23.70;54.00
72936;DHT22;61085;48.804;9.228;2022-07-23T07:38:55;24.10;53.90
72936;DHT22;61085;48.804;9.228;2022-07-23T07:41:21;24.20;53.60
72936;DHT22;61085;48.804;9.228;2022-07-23T07:43:50;24.30;53.40
72936;DHT22;61085;48.804;9.228;2022-07-23T07:46:15;24.40;53.50
72936;DHT22;61085;48.804;9.228;2022-07-23T07:48:41;24.60;53.30
72936;DHT22;61085;48.804;9.228;2022-07-23T07:51:07;24.90;53.80
72936;DHT22;61085;48.804;9.228;2022-07-23T07:53:33;25.00;53.30
72936;DHT22;61085;48.804;9.228;2022-07-23T07:55:58;24.90;53.80
72936;DHT22;61085;48.804;9.228;2022-07-23T07:58:24;25.00;53.60
72936;DHT22;61085;48.804;9.228;2022-07-23T08:00:50;25.10;53.80
72936;DHT22;61085;48.804;9.228;2022-07-23T08:03:17;25.20;53.30
72936;DHT22;61085;48.804;9.228;2022-07-23T08:05:42;25.30;52.90
72936;DHT22;61085;48.804;9.228;2022-07-23T08:08:08;25.10;52.70
72936;DHT22;61085;48.804;9.228;2022-07-23T08:10:35;24.80;53.50
72936;DHT22;61085;48.804;9.228;2022-07-23T08:13:00;25.00;53.50
72936;DHT22;61085;48.804;9.228;2022-07-23T08:15:28;25.10;53.50
72936;DHT22;61085;48.804;9.228;2022-07-23T08:17:54;25.70;53.40
72936;DHT22;61085;48.804;9.228;2022-07-23T08:20:21;26.30;51.80
72936;DHT22;61085;48.804;9.228;2022-07-23T08:22:50;26.90;49.80
72936;DHT22;61085;48.804;9.228;2022-07-23T08:27:52;27.50;48.60
72936;DHT22;61085;48.804;9.228;2022-07-23T08:30:18;27.10;47.50
72936;DHT22;61085;48.804;9.228;2022-07-23T08:33:03;26.00;48.10
72936;DHT22;61085;48.804;9.228;2022-07-23T08:35:33;25.10;49.90
72936;DHT22;61085;48.804;9.228;2022-07-23T08:38:02;24.90;51.20
72936;DHT22;61085;48.804;9.228;2022-07-23T08:40:30;25.00;51.40
72936;DHT22;61085;48.804;9.228;2022-07-23T08:42:56;24.70;52.50
72936;DHT22;61085;48.804;9.228;2022-07-23T08:45:23;24.60;53.50
72936;DHT22;61085;48.804;9.228;2022-07-23T08:47:55;24.80;53.20
72936;DHT22;61085;48.804;9.228;2022-07-23T08:50:23;25.10;52.90
72936;DHT22;61085;48.804;9.228;2022-07-23T08:52:50;25.40;52.70
72936;DHT22;61085;48.804;9.228;2022-07-23T08:55:20;26.30;50.80
72936;DHT22;61085;48.804;9.228;2022-07-23T08:57:49;26.90;49.60
72936;DHT22;61085;48.804;9.228;2022-07-23T09:00:16;26.80;47.50
72936;DHT22;61085;48.804;9.228;2022-07-23T09:02:44;26.60;47.10
72936;DHT22;61085;48.804;9.228;2022-07-23T09:05:11;26.40;48.00
72936;DHT22;61085;48.804;9.228;2022-07-23T09:07:38;26.60;47.90
72936;DHT22;61085;48.804;9.228;2022-07-23T09:10:23;26.80;46.70
72936;DHT22;61085;48.804;9.228;2022-07-23T09:12:49;26.90;46.80
72936;DHT22;61085;48.804;9.228;2022-07-23T09:15:14;26.80;46.60
72936;DHT22;61085;48.804;9.228;2022-07-23T09:17:42;27.60;46.70
72936;DHT22;61085;48.804;9.228;2022-07-23T09:20:13;27.80;44.50
72936;DHT22;61085;48.804;9.228;2022-07-23T09:22:47;28.40;43.40
72936;DHT22;61085;48.804;9.228;2022-07-23T09:25:18;28.50;42.70
72936;DHT22;61085;48.804;9.228;2022-07-23T09:27:57;28.80;41.30
72936;DHT22;61085;48.804;9.228;2022-07-23T09:30:27;28.30;42.60
72936;DHT22;61085;48.804;9.228;2022-07-23T09:33:10;27.90;41.90
72936;DHT22;61085;48.804;9.228;2022-07-23T09:35:49;27.50;43.20
72936;DHT22;61085;48.804;9.228;2022-07-23T09:38:15;27.50;43.80
72936;DHT22;61085;48.804;9.228;2022-07-23T09:40:41;28.10;42.00
72936;DHT22;61085;48.804;9.228;2022-07-23T09:43:07;28.50;41.60
72936;DHT22;61085;48.804;9.228;2022-07-23T09:45:32;28.90;40.60
72936;DHT22;61085;48.804;9.228;2022-07-23T09:50:37;29.50;38.70
72936;DHT22;61085;48.804;9.228;2022-07-23T09:53:02;29.70;38.50
72936;DHT22;61085;48.804;9.228;2022-07-23T09:55:35;29.80;39.10
72936;DHT22;61085;48.804;9.228;2022-07-23T09:58:08;29.20;38.40
72936;DHT22;61085;48.804;9.228;2022-07-23T10:00:42;28.60;39.10
72936;DHT22;61085;48.804;9.228;2022-07-23T10:03:11;28.70;40.00
72936;DHT22;61085;48.804;9.228;2022-07-23T10:05:39;28.20;40.40
72936;DHT22;61085;48.804;9.228;2022-07-23T10:08:11;28.30;41.10
72936;DHT22;61085;48.804;9.228;2022-07-23T10:10:39;28.40;40.80
72936;DHT22;61085;48.804;9.228;2022-07-23T10:13:05;27.80;39.70
72936;DHT22;61085;48.804;9.228;2022-07-23T10:15:50;27.90;39.80
72936;DHT22;61085;48.804;9.228;2022-07-23T10:18:16;28.00;41.10
72936;DHT22;61085;48.804;9.228;2022-07-23T10:20:43;28.50;41.00
72936;DHT22;61085;48.804;9.228;2022-07-23T10:23:30;28.90;40.40
72936;DHT22;61085;48.804;9.228;2022-07-23T10:26:26;29.20;39.70
72936;DHT22;61085;48.804;9.228;2022-07-23T10:31:50;28.90;38.40
72936;DHT22;61085;48.804;9.228;2022-07-23T10:37:10;28.50;39.90
72936;DHT22;61085;48.804;9.228;2022-07-23T10:39:38;28.70;40.20
72936;DHT22;61085;48.804;9.228;2022-07-23T10:44:43;28.70;40.20
72936;DHT22;61085;48.804;9.228;2022-07-23T10:47:10;28.70;39.80
72936;DHT22;61085;48.804;9.228;2022-07-23T10:49:48;28.80;40.70
72936;DHT22;61085;48.804;9.228;2022-07-23T10:57:13;29.10;39.70
72936;DHT22;61085;48.804;9.228;2022-07-23T11:00:09;28.40;40.60
72936;DHT22;61085;48.804;9.228;2022-07-23T11:02:38;28.80;40.00
72936;DHT22;61085;48.804;9.228;2022-07-23T11:05:12;28.60;39.60
72936;DHT22;61085;48.804;9.228;2022-07-23T11:18:54;28.50;41.70
72936;DHT22;61085;48.804;9.228;2022-07-23T11:24:00;28.20;41.80
72936;DHT22;61085;48.804;9.228;2022-07-23T11:32:06;28.30;41.70
72936;DHT22;61085;48.804;9.228;2022-07-23T11:34:47;28.50;41.00
72936;DHT22;61085;48.804;9.228;2022-07-23T11:37:37;28.80;40.70
72936;DHT22;61085;48.804;9.228;2022-07-23T11:40:09;28.90;40.40
72936;DHT22;61085;48.804;9.228;2022-07-23T11:45:19;29.50;38.30
72936;DHT22;61085;48.804;9.228;2022-07-23T11:47:45;29.40;38.40
72936;DHT22;61085;48.804;9.228;2022-07-23T11:50:11;29.40;38.30
72936;DHT22;61085;48.804;9.228;2022-07-23T11:52:36;29.40;38.80
72936;DHT22;61085;48.804;9.228;2022-07-23T11:55:09;29.50;37.00
72936;DHT22;61085;48.804;9.228;2022-07-23T11:57:40;29.30;38.00
72936;DHT22;61085;48.804;9.228;2022-07-23T12:00:16;29.60;38.90
72936;DHT22;61085;48.804;9.228;2022-07-23T12:02:47;29.90;38.90
72936;DHT22;61085;48.804;9.228;2022-07-23T12:05:15;30.20;38.00
72936;DHT22;61085;48.804;9.228;2022-07-23T12:07:43;29.90;37.40
72936;DHT22;61085;48.804;9.228;2022-07-23T12:12:49;29.90;38.20
72936;DHT22;61085;48.804;9.228;2022-07-23T12:15:16;29.20;38.60
72936;DHT22;61085;48.804;9.228;2022-07-23T12:17:44;29.10;39.50
72936;DHT22;61085;48.804;9.228;2022-07-23T12:20:14;28.90;39.90
72936;DHT22;61085;48.804;9.228;2022-07-23T12:22:43;29.00;40.50
72936;DHT22;61085;48.804;9.228;2022-07-23T12:25:17;29.20;40.40
72936;DHT22;61085;48.804;9.228;2022-07-23T12:27:43;29.60;40.00
72936;DHT22;61085;48.804;9.228;2022-07-23T12:30:26;29.70;39.20
72936;DHT22;61085;48.804;9.228;2022-07-23T12:32:54;29.90;38.70
72936;DHT22;61085;48.804;9.228;2022-07-23T12:35:21;30.10;38.70
72936;DHT22;61085;48.804;9.228;2022-07-23T12:37:49;30.10;37.40
72936;DHT22;61085;48.804;9.228;2022-07-23T12:43:00;29.90;37.80
72936;DHT22;61085;48.804;9.228;2022-07-23T12:45:27;30.20;37.60
72936;DHT22;61085;48.804;9.228;2022-07-23T12:48:05;29.70;37.50
72936;DHT22;61085;48.804;9.228;2022-07-23T12:50:47;29.60;37.70
72936;DHT22;61085;48.804;9.228;2022-07-23T12:53:22;29.90;38.40
72936;DHT22;61085;48.804;9.228;2022-07-23T12:55:49;30.10;37.70
72936;DHT22;61085;48.804;9.228;2022-07-23T12:58:19;30.30;37.70
72936;DHT22;61085;48.804;9.228;2022-07-23T13:00:55;30.50;37.30
72936;DHT22;61085;48.804;9.228;2022-07-23T13:03:29;30.40;37.60
72936;DHT22;61085;48.804;9.228;2022-07-23T13:05:56;30.30;37.80
72936;DHT22;61085;48.804;9.228;2022-07-23T13:08:23;30.00;37.20
72936;DHT22;61085;48.804;9.228;2022-07-23T13:10:49;30.10;38.50
72936;DHT22;61085;48.804;9.228;2022-07-23T13:13:19;30.00;37.30
72936;DHT22;61085;48.804;9.228;2022-07-23T13:15:45;29.60;38.40
72936;DHT22;61085;48.804;9.228;2022-07-23T13:18:11;29.20;39.00
72936;DHT22;61085;48.804;9.228;2022-07-23T13:20:36;29.10;39.50
72936;DHT22;61085;48.804;9.228;2022-07-23T13:23:05;29.30;39.80
72936;DHT22;61085;48.804;9.228;2022-07-23T13:25:31;29.50;38.70
72936;DHT22;61085;48.804;9.228;2022-07-23T13:27:56;29.80;38.80
72936;DHT22;61085;48.804;9.228;2022-07-23T13:30:22;30.00;37.90
72936;DHT22;61085;48.804;9.228;2022-07-23T13:32:48;30.00;37.40
72936;DHT22;61085;48.804;9.228;2022-07-23T13:35:14;29.90;37.80
72936;DHT22;61085;48.804;9.228;2022-07-23T13:37:39;29.90;37.90
72936;DHT22;61085;48.804;9.228;2022-07-23T13:40:06;30.00;37.80
72936;DHT22;61085;48.804;9.228;2022-07-23T13:42:31;30.00;36.90
72936;DHT22;61085;48.804;9.228;2022-07-23T13:44:57;30.20;37.20
72936;DHT22;61085;48.804;9.228;2022-07-23T13:47:23;29.80;37.50
72936;DHT22;61085;48.804;9.228;2022-07-23T13:49:48;29.80;38.60
72936;DHT22;61085;48.804;9.228;2022-07-23T13:52:14;29.40;38.70
72936;DHT22;61085;48.804;9.228;2022-07-23T13:54:40;29.50;39.60
72936;DHT22;61085;48.804;9.228;2022-07-23T13:57:05;29.60;38.90
72936;DHT22;61085;48.804;9.228;2022-07-23T13:59:31;29.90;38.90
72936;DHT22;61085;48.804;9.228;2022-07-23T14:01:57;29.60;38.80
72936;DHT22;61085;48.804;9.228;2022-07-23T14:04:23;29.40;39.40
72936;DHT22;61085;48.804;9.228;2022-07-23T14:06:48;29.60;40.00
72936;DHT22;61085;48.804;9.228;2022-07-23T14:09:14;29.90;40.10
72936;DHT22;61085;48.804;9.228;2022-07-23T14:14:05;29.80;38.70
72936;DHT22;61085;48.804;9.228;2022-07-23T14:16:31;29.90;39.60
72936;DHT22;61085;48.804;9.228;2022-07-23T14:18:57;29.90;39.50
72936;DHT22;61085;48.804;9.228;2022-07-23T14:21:22;30.00;39.50
72936;DHT22;61085;48.804;9.228;2022-07-23T14:23:48;30.00;38.10
72936;DHT22;61085;48.804;9.228;2022-07-23T14:26:14;30.30;37.00
72936;DHT22;61085;48.804;9.228;2022-07-23T14:28:39;30.50;36.90
72936;DHT22;61085;48.804;9.228;2022-07-23T14:31:05;30.40;36.50
72936;DHT22;61085;48.804;9.228;2022-07-23T14:33:31;30.00;36.10
72936;DHT22;61085;48.804;9.228;2022-07-23T14:35:56;29.40;36.80
72936;DHT22;61085;48.804;9.228;2022-07-23T14:38:24;29.30;38.20
72936;DHT22;61085;48.804;9.228;2022-07-23T14:40:50;29.20;37.70
72936;DHT22;61085;48.804;9.228;2022-07-23T14:43:15;29.60;37.80
72936;DHT22;61085;48.804;9.228;2022-07-23T14:45:41;29.70;37.60
72936;DHT22;61085;48.804;9.228;2022-07-23T14:48:06;29.50;37.50
72936;DHT22;61085;48.804;9.228;2022-07-23T14:50:32;29.50;37.70
72936;DHT22;61085;48.804;9.228;2022-07-23T14:52:58;29.50;37.50
72936;DHT22;61085;48.804;9.228;2022-07-23T14:55:24;29.70;37.70
72936;DHT22;61085;48.804;9.228;2022-07-23T14:57:49;29.80;37.40
72936;DHT22;61085;48.804;9.228;2022-07-23T15:00:16;29.60;37.90
72936;DHT22;61085;48.804;9.228;2022-07-23T15:02:42;29.50;37.70
72936;DHT22;61085;48.804;9.228;2022-07-23T15:05:07;29.40;37.60
72936;DHT22;61085;48.804;9.228;2022-07-23T15:07:33;29.50;37.80
72936;DHT22;61085;48.804;9.228;2022-07-23T15:09:59;29.70;37.90
72936;DHT22;61085;48.804;9.228;2022-07-23T15:12:24;30.00;36.90
72936;DHT22;61085;48.804;9.228;2022-07-23T15:14:50;30.30;36.70
72936;DHT22;61085;48.804;9.228;2022-07-23T15:17:16;30.20;36.70
72936;DHT22;61085;48.804;9.228;2022-07-23T15:19:41;30.20;36.80
72936;DHT22;61085;48.804;9.228;2022-07-23T15:22:07;30.00;36.50
72936;DHT22;61085;48.804;9.228;2022-07-23T15:24:33;29.80;36.10
72936;DHT22;61085;48.804;9.228;2022-07-23T15:26:59;29.90;36.80
72936;DHT22;61085;48.804;9.228;2022-07-23T15:29:24;30.00;36.70
72936;DHT22;61085;48.804;9.228;2022-07-23T15:31:50;30.00;36.20
72936;DHT22;61085;48.804;9.228;2022-07-23T15:34:16;30.20;36.40
72936;DHT22;61085;48.804;9.228;2022-07-23T15:36:41;29.90;36.00
72936;DHT22;61085;48.804;9.228;2022-07-23T15:39:07;30.00;36.60
72936;DHT22;61085;48.804;9.228;2022-07-23T15:41:33;30.10;36.20
72936;DHT22;61085;48.804;9.228;2022-07-23T15:43:59;30.10;36.40
72936;DHT22;61085;48.804;9.228;2022-07-23T15:46:25;30.10;36.10
72936;DHT22;61085;48.804;9.228;2022-07-23T15:48:51;30.00;35.70
72936;DHT22;61085;48.804;9.228;2022-07-23T15:51:17;29.80;36.50
72936;DHT22;61085;48.804;9.228;2022-07-23T15:53:43;29.90;37.30
72936;DHT22;61085;48.804;9.228;2022-07-23T15:56:09;30.00;36.30
72936;DHT22;61085;48.804;9.228;2022-07-23T15:58:37;30.10;36.80
72936;DHT22;61085;48.804;9.228;2022-07-23T16:01:03;30.00;35.80
72936;DHT22;61085;48.804;9.228;2022-07-23T16:03:31;29.70;35.30
72936;DHT22;61085;48.804;9.228;2022-07-23T16:05:57;29.70;36.30
72936;DHT22;61085;48.804;9.228;2022-07-23T16:08:23;29.70;36.90
72936;DHT22;61085;48.804;9.228;2022-07-23T16:10:49;29.70;37.00
72936;DHT22;61085;48.804;9.228;2022-07-23T16:13:14;29.90;36.70
72936;DHT22;61085;48.804;9.228;2022-07-23T16:15:41;29.90;36.20
72936;DHT22;61085;48.804;9.228;2022-07-23T16:18:08;29.80;36.70